createdAt,value
2018-10-17T00:02:21.071Z,15.70
2018-10-17T00:04:52.673Z,14.67
2018-10-17T00:07:24.691Z,18.00
2018-10-17T00:09:56.490Z,16.43
2018-10-17T00:12:28.451Z,15.40
2018-10-17T00:15:00.591Z,15.23
2018-10-17T00:17:32.871Z,18.97
2018-10-17T00:20:05.171Z,15.37
2018-10-17T00:22:37.874Z,16.50
2018-10-17T00:25:09.407Z,16.40
2018-10-17T00:27:40.910Z,18.60
2018-10-17T00:30:13.791Z,23.70
2018-10-17T00:32:45.931Z,18.70
2018-10-17T00:35:18.131Z,15.73
2018-10-17T00:37:50.111Z,16.30
2018-10-17T00:40:24.679Z,16.90
2018-10-17T00:42:57.025Z,15.27
2018-10-17T00:45:29.670Z,17.20
2018-10-17T00:48:01.431Z,23.00
2018-10-17T00:50:34.391Z,16.13
2018-10-17T00:53:06.428Z,18.70
2018-10-17T00:55:38.132Z,18.97
2018-10-17T00:58:10.011Z,15.00
2018-10-17T01:00:40.551Z,18.33
2018-10-17T01:03:12.272Z,19.13
2018-10-17T01:05:43.971Z,17.80
2018-10-17T01:08:15.451Z,19.43
2018-10-17T01:10:47.831Z,14.77
2018-10-17T01:13:19.392Z,18.30
2018-10-17T01:15:51.211Z,17.63
2018-10-17T01:18:22.831Z,22.90
2018-10-17T01:20:55.073Z,17.40
2018-10-17T01:23:26.151Z,17.30
2018-10-17T01:25:57.851Z,16.90
2018-10-17T01:28:29.351Z,17.03
2018-10-17T01:31:01.892Z,18.10
2018-10-17T01:33:33.772Z,20.77
2018-10-17T01:36:05.671Z,18.60
2018-10-17T01:38:38.072Z,16.90
2018-10-17T01:41:10.218Z,17.37
2018-10-17T01:43:42.292Z,17.33
2018-10-17T01:46:14.071Z,16.20
2018-10-17T01:48:46.951Z,17.37
2018-10-17T01:51:19.011Z,17.52
2018-10-17T01:53:51.534Z,17.87
2018-10-17T01:56:23.491Z,17.67
2018-10-17T01:58:54.617Z,17.53
2018-10-17T02:01:26.410Z,17.30
2018-10-17T02:03:58.150Z,15.87
2018-10-17T02:06:30.551Z,17.77
2018-10-17T02:09:02.011Z,16.57
2018-10-17T02:11:33.732Z,18.57
2018-10-17T02:14:04.710Z,17.80
2018-10-17T02:16:36.833Z,17.23
2018-10-17T02:19:08.346Z,17.70
2018-10-17T02:21:39.971Z,16.90
2018-10-17T02:24:11.891Z,17.00
2018-10-17T02:26:43.313Z,17.55
2018-10-17T02:29:15.226Z,18.57
2018-10-17T02:31:46.931Z,18.30
2018-10-17T02:34:18.550Z,19.90
2018-10-17T02:36:50.932Z,17.97
2018-10-17T02:39:22.429Z,18.07
2018-10-17T02:41:55.031Z,17.30
2018-10-17T02:44:27.011Z,17.55
2018-10-17T02:46:59.179Z,17.60
2018-10-17T02:49:31.211Z,17.70
2018-10-17T02:52:02.451Z,18.45
2018-10-17T02:54:34.130Z,17.23
2018-10-17T02:57:06.091Z,19.73
2018-10-17T02:59:38.631Z,18.70
2018-10-17T03:02:10.511Z,17.55
2018-10-17T03:04:42.591Z,17.95
2018-10-17T03:07:14.321Z,19.95
2018-10-17T03:09:45.651Z,21.48
2018-10-17T03:12:17.651Z,19.80
2018-10-17T03:14:49.011Z,19.27
2018-10-17T03:17:20.791Z,19.50
2018-10-17T03:19:52.071Z,18.70
2018-10-17T03:22:23.591Z,20.43
2018-10-17T03:24:55.870Z,18.57
2018-10-17T03:27:27.510Z,19.73
2018-10-17T03:29:59.438Z,19.07
2018-10-17T03:32:31.451Z,17.30
2018-10-17T03:35:03.551Z,17.60
2018-10-17T03:37:34.431Z,18.02
2018-10-17T03:40:06.831Z,17.60
2018-10-17T03:42:38.354Z,18.60
2018-10-17T03:45:10.271Z,20.30
2018-10-17T03:47:41.611Z,19.65
2018-10-17T03:50:13.871Z,19.92
2018-10-17T03:52:46.275Z,20.65
2018-10-17T03:55:19.053Z,21.87
2018-10-17T03:57:50.893Z,22.10
2018-10-17T04:00:22.811Z,21.23
2018-10-17T04:02:54.957Z,23.07
2018-10-17T04:05:27.211Z,22.17
2018-10-17T04:07:59.251Z,20.25
2018-10-17T04:10:31.331Z,23.47
2018-10-17T04:13:03.668Z,21.73
2018-10-17T04:15:35.291Z,20.88
2018-10-17T04:18:07.771Z,19.75
2018-10-17T04:20:38.245Z,21.00
2018-10-17T04:23:10.279Z,19.42
2018-10-17T04:25:42.333Z,28.90
2018-10-17T04:28:14.771Z,22.02
2018-10-17T04:30:46.571Z,22.40
2018-10-17T04:33:18.650Z,24.60
2018-10-17T04:35:50.371Z,19.67
2018-10-17T04:38:22.531Z,18.45
2018-10-17T04:40:53.752Z,19.87
2018-10-17T04:43:25.910Z,18.98
2018-10-17T04:45:57.290Z,22.98
2018-10-17T04:48:29.291Z,23.92
2018-10-17T04:51:00.590Z,19.37
2018-10-17T04:53:32.578Z,20.92
2018-10-17T04:56:04.871Z,19.80
2018-10-17T04:58:37.590Z,28.60
2018-10-17T05:01:09.455Z,22.10
2018-10-17T05:03:42.331Z,20.12
2018-10-17T05:06:14.771Z,21.17
2018-10-17T05:08:47.839Z,24.05
2018-10-17T05:11:19.692Z,20.40
2018-10-17T05:13:52.031Z,21.85
2018-10-17T05:16:24.611Z,21.25
2018-10-17T05:18:56.286Z,24.72
2018-10-17T05:21:28.390Z,22.42
2018-10-17T05:24:00.551Z,22.75
2018-10-17T05:26:32.711Z,22.93
2018-10-17T05:29:05.663Z,25.43
2018-10-17T05:31:37.613Z,20.77
2018-10-17T05:34:09.790Z,18.90
2018-10-17T05:36:43.090Z,21.30
2018-10-17T05:39:15.030Z,25.65
2018-10-17T05:41:47.711Z,20.08
2018-10-17T05:44:19.930Z,19.80
2018-10-17T05:46:52.980Z,19.82
2018-10-17T05:49:24.251Z,22.62
2018-10-17T05:51:58.052Z,27.20
2018-10-17T05:54:30.113Z,23.47
2018-10-17T05:57:02.311Z,22.75
2018-10-17T05:59:34.432Z,25.82
2018-10-17T06:02:13.491Z,23.20
2018-10-17T06:04:45.091Z,22.17
2018-10-17T06:07:16.934Z,25.30
2018-10-17T06:09:48.912Z,20.72
2018-10-17T06:12:20.843Z,35.78
2018-10-17T06:14:53.271Z,28.55
2018-10-17T06:17:25.276Z,21.30
2018-10-17T06:19:57.231Z,27.87
2018-10-17T06:22:29.071Z,26.57
2018-10-17T06:25:01.209Z,22.15
2018-10-17T06:27:33.875Z,21.57
2018-10-17T06:30:05.531Z,24.52
2018-10-17T06:32:38.091Z,21.77
2018-10-17T06:35:10.851Z,24.02
2018-10-17T06:37:42.852Z,30.00
2018-10-17T06:40:14.192Z,21.37
2018-10-17T06:42:45.951Z,21.57
2018-10-17T06:45:17.871Z,26.27
2018-10-17T06:47:49.754Z,23.95
2018-10-17T06:50:21.671Z,28.60
2018-10-17T06:52:53.902Z,30.43
2018-10-17T06:55:26.413Z,23.22
2018-10-17T06:57:57.612Z,21.90
2018-10-17T07:00:28.911Z,28.02
2018-10-17T07:03:00.151Z,28.30
2018-10-17T07:05:31.493Z,23.95
2018-10-17T07:08:03.449Z,24.90
2018-10-17T07:10:35.152Z,21.70
2018-10-17T07:13:07.183Z,23.05
2018-10-17T07:15:39.678Z,23.70
2018-10-17T07:18:11.667Z,78.83
2018-10-17T07:20:42.864Z,197.68
2018-10-17T07:23:14.787Z,181.47
2018-10-17T07:25:47.233Z,92.62
2018-10-17T07:28:18.254Z,35.68
2018-10-17T07:30:50.209Z,29.00
2018-10-17T07:33:20.967Z,21.75
2018-10-17T07:35:53.474Z,20.23
2018-10-17T07:38:24.809Z,22.73
2018-10-17T07:40:56.930Z,32.48
2018-10-17T07:43:29.129Z,33.55
2018-10-17T07:46:00.810Z,29.82
2018-10-17T07:48:31.830Z,36.65
2018-10-17T07:51:03.508Z,29.48
2018-10-17T07:53:35.743Z,26.82
2018-10-17T07:56:08.048Z,24.20
2018-10-17T07:58:39.611Z,24.43
2018-10-17T08:01:10.414Z,25.35
2018-10-17T08:03:42.451Z,23.67
2018-10-17T08:06:14.359Z,21.12
2018-10-17T08:08:45.943Z,23.83
2018-10-17T08:11:17.766Z,25.90
2018-10-17T08:13:49.614Z,23.98
2018-10-17T08:16:20.718Z,24.10
2018-10-17T08:18:52.156Z,29.45
2018-10-17T08:21:23.894Z,25.43
2018-10-17T08:23:56.023Z,21.50
2018-10-17T08:26:27.305Z,20.93
2018-10-17T08:29:00.188Z,21.30
2018-10-17T08:31:32.584Z,25.83
2018-10-17T08:34:05.384Z,21.03
2018-10-17T08:36:35.969Z,25.30
2018-10-17T08:39:08.794Z,25.77
2018-10-17T08:41:40.121Z,25.63
2018-10-17T08:44:12.052Z,19.70
2018-10-17T08:46:43.865Z,22.00
2018-10-17T08:49:16.010Z,27.50
2018-10-17T08:51:47.871Z,20.03
2018-10-17T08:54:20.023Z,26.50
2018-10-17T08:56:52.255Z,26.33
2018-10-17T08:59:25.235Z,21.90
2018-10-17T09:01:56.334Z,23.67
2018-10-17T09:04:28.696Z,23.87
2018-10-17T09:07:00.535Z,21.37
2018-10-17T09:09:32.355Z,20.30
2018-10-17T09:12:03.884Z,22.27
2018-10-17T09:14:35.402Z,20.90
2018-10-17T09:17:06.665Z,23.40
2018-10-17T09:19:39.165Z,18.70
2018-10-17T09:22:11.301Z,21.80
2018-10-17T09:24:42.902Z,17.40
2018-10-17T09:27:14.303Z,17.53
2018-10-17T09:29:47.282Z,16.30
2018-10-17T09:32:19.583Z,18.83
2018-10-17T09:34:51.351Z,15.87
2018-10-17T09:37:23.132Z,16.17
2018-10-17T09:39:55.355Z,16.40
2018-10-17T09:42:27.526Z,15.07
2018-10-17T09:44:59.246Z,16.03
2018-10-17T09:47:30.989Z,16.90
2018-10-17T09:50:02.550Z,15.70
2018-10-17T09:52:34.352Z,15.97
2018-10-17T09:55:06.911Z,15.57
2018-10-17T09:57:39.077Z,17.53
2018-10-17T10:00:16.178Z,13.50
2018-10-17T10:02:48.396Z,18.40
2018-10-17T10:05:20.525Z,22.03
2018-10-17T10:07:52.363Z,18.97
2018-10-17T10:10:23.622Z,20.00
2018-10-17T10:12:55.181Z,19.07
2018-10-17T10:15:26.989Z,19.67
2018-10-17T10:17:57.736Z,19.47
2018-10-17T10:20:28.972Z,22.10
2018-10-17T10:23:01.116Z,25.40
2018-10-17T10:25:33.399Z,23.83
2018-10-17T10:28:06.005Z,27.37
2018-10-17T10:30:37.584Z,29.30
2018-10-17T10:33:09.439Z,25.43
2018-10-17T10:35:40.741Z,27.70
2018-10-17T10:38:13.775Z,26.80
2018-10-17T10:40:46.586Z,26.27
2018-10-17T10:43:19.879Z,28.60
2018-10-17T10:57:02.863Z,28.60
2018-10-17T10:59:35.213Z,25.40
2018-10-17T11:02:07.348Z,28.47
2018-10-17T11:04:38.988Z,27.37
2018-10-17T11:07:11.323Z,25.57
2018-10-17T11:09:43.078Z,25.63
2018-10-17T11:12:15.213Z,26.67
2018-10-17T11:14:47.314Z,25.07
2018-10-17T11:17:19.654Z,26.30
2018-10-17T11:19:52.778Z,26.20
2018-10-17T11:22:25.075Z,26.47
2018-10-17T11:24:57.015Z,28.97
2018-10-17T11:27:28.671Z,26.83
2018-10-17T11:30:01.382Z,27.23
2018-10-17T11:32:32.547Z,27.33
2018-10-17T11:35:04.070Z,25.30
2018-10-17T11:37:35.389Z,27.83
2018-10-17T11:40:07.964Z,27.10
2018-10-17T11:42:39.237Z,26.37
2018-10-17T11:45:11.206Z,28.33
2018-10-17T11:47:43.585Z,27.30
2018-10-17T11:50:15.729Z,29.40
2018-10-17T11:52:46.828Z,27.10
2018-10-17T11:55:19.248Z,35.43
2018-10-17T11:57:50.568Z,27.30
2018-10-17T12:00:22.428Z,26.30
2018-10-17T12:02:54.097Z,27.63
2018-10-17T12:05:26.777Z,28.40
2018-10-17T12:07:58.715Z,31.63
2018-10-17T12:10:30.608Z,28.80
2018-10-17T12:13:02.648Z,28.40
2018-10-17T12:15:34.529Z,25.47
2018-10-17T12:18:07.134Z,28.47
2018-10-17T12:20:38.948Z,29.73
2018-10-17T12:23:11.011Z,30.80
2018-10-17T12:25:44.550Z,28.30
2018-10-17T12:28:16.904Z,28.23
2018-10-17T12:30:49.149Z,28.27
2018-10-17T12:33:20.727Z,29.07
2018-10-17T12:35:53.128Z,30.07
2018-10-17T12:38:24.848Z,32.40
2018-10-17T12:40:57.273Z,29.87
2018-10-17T12:43:28.346Z,29.00
2018-10-17T12:46:00.808Z,33.03
2018-10-17T12:48:33.028Z,31.10
2018-10-17T12:51:05.710Z,29.50
2018-10-17T12:53:37.128Z,33.00
2018-10-17T12:56:08.712Z,29.10
2018-10-17T12:58:40.689Z,30.00
2018-10-17T13:01:12.879Z,27.93
2018-10-17T13:03:44.748Z,31.00
2018-10-17T13:06:16.771Z,28.37
2018-10-17T13:08:49.448Z,27.83
2018-10-17T13:11:22.798Z,29.87
2018-10-17T13:13:54.411Z,29.50
2018-10-17T13:16:26.431Z,29.00
2018-10-17T13:18:58.132Z,33.70
2018-10-17T13:21:30.465Z,31.40
2018-10-17T13:24:02.480Z,27.40
2018-10-17T13:26:35.042Z,21.87
2018-10-17T13:29:07.685Z,21.33
2018-10-17T13:31:39.739Z,26.60
2018-10-17T13:34:11.074Z,24.00
2018-10-17T13:36:42.301Z,24.13
2018-10-17T13:39:14.442Z,21.10
2018-10-17T13:41:46.482Z,19.80
2018-10-17T13:44:17.740Z,23.80
2018-10-17T13:46:50.097Z,23.37
2018-10-17T13:49:21.894Z,24.90
2018-10-17T13:51:53.726Z,27.57
2018-10-17T13:54:25.163Z,29.30
2018-10-17T13:56:56.843Z,25.93
2018-10-17T13:59:28.548Z,26.90
2018-10-17T14:02:00.324Z,30.37
2018-10-17T14:04:31.844Z,30.13
2018-10-17T14:07:03.201Z,29.13
2018-10-17T14:09:35.719Z,24.33
2018-10-17T14:12:07.603Z,28.33
2018-10-17T14:14:39.824Z,32.80
2018-10-17T14:17:11.379Z,22.47
2018-10-17T14:19:43.359Z,23.60
2018-10-17T14:22:15.481Z,25.23
2018-10-17T14:24:46.053Z,27.00
2018-10-17T14:27:17.724Z,23.07
2018-10-17T14:29:49.142Z,22.10
2018-10-17T14:32:21.723Z,24.53
2018-10-17T14:34:53.640Z,23.60
2018-10-17T14:37:26.101Z,20.63
2018-10-17T14:39:57.900Z,20.40
2018-10-17T14:42:29.562Z,20.10
2018-10-17T14:45:04.760Z,82.23
2018-10-17T14:47:36.473Z,20.67
2018-10-17T14:50:07.960Z,40.77
2018-10-17T14:52:39.721Z,22.03
2018-10-17T14:55:12.020Z,20.00
2018-10-17T14:57:44.319Z,21.60
2018-10-17T15:00:16.481Z,22.33
2018-10-17T15:02:49.639Z,21.60
2018-10-17T15:05:21.321Z,25.70
2018-10-17T15:07:52.960Z,24.27
2018-10-17T15:10:24.730Z,23.60
2018-10-17T15:12:57.099Z,26.67
2018-10-17T15:15:29.065Z,21.80
2018-10-17T15:18:00.917Z,23.90
2018-10-17T15:20:32.977Z,23.20
2018-10-17T15:23:05.117Z,18.20
2018-10-17T15:25:37.557Z,17.20
2018-10-17T15:28:09.117Z,19.77
2018-10-17T15:30:40.936Z,17.73
2018-10-17T15:33:12.660Z,20.10
2018-10-17T15:35:44.198Z,21.33
2018-10-17T15:38:15.584Z,18.10
2018-10-17T15:40:47.277Z,20.13
2018-10-17T15:43:19.845Z,18.83
2018-10-17T15:45:51.597Z,27.30
2018-10-17T15:48:23.377Z,16.10
2018-10-17T15:50:55.023Z,16.77
2018-10-17T15:53:27.019Z,18.07
2018-10-17T15:55:58.877Z,17.70
2018-10-17T15:58:30.838Z,16.93
2018-10-17T16:01:02.647Z,17.23
2018-10-17T16:03:35.077Z,17.03
2018-10-17T16:06:07.903Z,17.80
2018-10-17T16:08:39.977Z,18.33
2018-10-17T16:11:13.357Z,16.87
2018-10-17T16:13:45.618Z,18.33
2018-10-17T16:16:16.957Z,16.63
2018-10-17T16:18:49.658Z,16.80
2018-10-17T16:21:21.758Z,18.30
2018-10-17T16:23:54.381Z,17.80
2018-10-17T16:26:27.500Z,18.93
2018-10-17T16:28:59.038Z,16.60
2018-10-17T16:31:31.358Z,17.87
2018-10-17T16:34:02.557Z,19.00
2018-10-17T16:36:34.979Z,19.03
2018-10-17T16:39:09.117Z,16.70
2018-10-17T16:41:42.418Z,17.23
2018-10-17T16:44:14.092Z,17.10
2018-10-17T16:46:46.559Z,16.93
2018-10-17T16:49:19.558Z,15.67
2018-10-17T16:51:50.777Z,17.00
2018-10-17T16:54:22.158Z,16.73
2018-10-17T16:56:54.742Z,16.87
2018-10-17T16:59:27.099Z,17.47
2018-10-17T17:01:59.199Z,17.80
2018-10-17T17:04:30.844Z,21.83
2018-10-17T17:07:04.038Z,17.30
2018-10-17T17:09:36.438Z,19.57
2018-10-17T17:12:09.056Z,20.47
2018-10-17T17:14:40.873Z,18.07
2018-10-17T17:17:13.338Z,19.07
2018-10-17T17:19:45.640Z,22.80
2018-10-17T17:22:17.179Z,20.93
2018-10-17T17:24:48.961Z,20.10
2018-10-17T17:27:22.100Z,20.90
2018-10-17T17:29:54.252Z,19.00
2018-10-17T17:32:26.419Z,18.93
2018-10-17T17:34:58.297Z,18.13
2018-10-17T17:37:30.277Z,16.40
2018-10-17T17:40:02.717Z,17.20
2018-10-17T17:42:35.497Z,15.33
2018-10-17T17:45:07.897Z,16.00
2018-10-17T17:47:39.439Z,16.30
2018-10-17T17:50:11.258Z,17.50
2018-10-17T17:52:42.839Z,17.37
2018-10-17T17:55:15.840Z,18.13
2018-10-17T17:57:48.023Z,17.87
2018-10-17T18:00:20.518Z,17.60
2018-10-17T18:02:53.319Z,16.07
2018-10-17T18:05:25.858Z,17.73
2018-10-17T18:07:57.817Z,16.30
2018-10-17T18:10:29.079Z,18.60
2018-10-17T18:13:01.921Z,19.17
2018-10-17T18:15:33.880Z,18.90
2018-10-17T18:18:05.877Z,17.50
2018-10-17T18:20:37.497Z,19.43
2018-10-17T18:23:09.137Z,19.90
2018-10-17T18:25:42.077Z,19.73
2018-10-17T18:28:13.682Z,19.93
2018-10-17T18:30:44.837Z,20.20
2018-10-17T18:33:16.317Z,22.43
2018-10-17T18:35:48.858Z,21.00
2018-10-17T18:38:20.546Z,17.33
2018-10-17T18:40:50.720Z,18.93
2018-10-17T18:43:22.557Z,17.50
2018-10-17T18:45:54.119Z,16.50
2018-10-17T18:48:26.638Z,19.63
2018-10-17T18:50:58.376Z,19.77
2018-10-17T18:53:30.717Z,17.37
2018-10-17T18:56:02.873Z,18.07
2018-10-17T18:58:34.716Z,16.80
2018-10-17T19:01:06.782Z,17.33
2018-10-17T19:03:38.452Z,21.00
2018-10-17T19:06:10.618Z,17.43
2018-10-17T19:15:46.410Z,21.97
2018-10-17T19:18:18.758Z,16.77
2018-10-17T19:20:50.837Z,15.20
2018-10-17T19:23:23.018Z,16.13
2018-10-17T19:25:55.357Z,18.87
2018-10-17T19:28:27.397Z,15.07
2018-10-17T19:30:59.378Z,18.20
2018-10-17T19:33:30.718Z,28.77
2018-10-17T19:36:03.396Z,17.83
2018-10-17T19:38:35.777Z,16.53
2018-10-17T19:41:07.916Z,16.87
2018-10-17T19:43:40.577Z,16.37
2018-10-17T19:46:11.958Z,18.40
2018-10-17T19:48:44.538Z,18.03
2018-10-17T19:51:17.635Z,16.87
2018-10-17T19:53:48.658Z,17.60
2018-10-17T19:56:20.222Z,18.00
2018-10-17T19:58:52.320Z,19.97
2018-10-17T20:01:24.278Z,19.10
2018-10-17T20:03:56.316Z,18.73
2018-10-17T20:06:28.177Z,17.40
2018-10-17T20:09:00.340Z,21.07
2018-10-17T20:11:32.719Z,19.10
2018-10-17T20:14:04.519Z,17.20
2018-10-17T20:16:36.496Z,16.93
2018-10-17T20:19:08.917Z,21.83
2018-10-17T20:21:40.637Z,17.70
2018-10-17T20:24:13.377Z,18.90
2018-10-17T20:26:44.916Z,18.53
2018-10-17T20:29:16.737Z,23.73
2018-10-17T20:31:48.916Z,21.10
2018-10-17T20:34:21.278Z,17.70
2018-10-17T20:36:53.458Z,18.73
2018-10-17T20:39:25.471Z,23.20
2018-10-17T20:41:57.818Z,20.73
2018-10-17T20:44:29.717Z,20.40
2018-10-17T20:47:01.537Z,19.70
2018-10-17T20:49:32.956Z,21.90
2018-10-17T20:52:04.837Z,18.10
2018-10-17T20:54:35.898Z,20.20
2018-10-17T20:57:07.421Z,19.43
2018-10-17T20:59:39.837Z,19.30
2018-10-17T21:02:12.351Z,18.37
2018-10-17T21:04:43.936Z,18.43
2018-10-17T21:07:15.676Z,18.30
2018-10-17T21:09:48.096Z,24.87
2018-10-17T21:12:20.458Z,20.47
2018-10-17T21:14:52.282Z,30.70
2018-10-17T21:17:24.560Z,23.70
2018-10-17T21:19:56.512Z,18.93
2018-10-17T21:22:28.277Z,21.20
2018-10-17T21:25:00.877Z,21.20
2018-10-17T21:27:33.117Z,19.90
2018-10-17T21:30:05.377Z,54.63
2018-10-17T21:32:38.399Z,20.30
2018-10-17T21:35:10.427Z,20.57
2018-10-17T21:37:42.903Z,20.77
2018-10-17T21:40:14.817Z,23.00
2018-10-17T21:42:46.876Z,20.90
2018-10-17T21:45:17.897Z,19.60
2018-10-17T21:47:50.258Z,21.57
2018-10-17T21:50:22.598Z,19.23
2018-10-17T21:52:54.237Z,19.70
2018-10-17T21:55:25.917Z,18.30
2018-10-17T21:57:57.957Z,23.80
2018-10-17T22:00:30.678Z,19.83
2018-10-17T22:03:02.198Z,18.52
2018-10-17T22:05:34.017Z,20.00
2018-10-17T22:08:05.752Z,19.50
2018-10-17T22:10:37.538Z,18.70
2018-10-17T22:13:09.879Z,21.27
2018-10-17T22:15:42.197Z,18.90
2018-10-17T22:18:14.097Z,19.27
2018-10-17T22:20:45.937Z,18.27
2018-10-17T22:23:16.976Z,20.00
2018-10-17T22:25:49.118Z,21.03
2018-10-17T22:28:21.497Z,19.80
2018-10-17T22:30:53.437Z,19.10
2018-10-17T22:33:25.357Z,21.00
2018-10-17T22:35:57.217Z,20.33
2018-10-17T22:38:29.618Z,19.67
2018-10-17T22:41:01.857Z,20.20
2018-10-17T22:43:33.596Z,19.73
2018-10-17T22:46:06.457Z,19.20
2018-10-17T22:48:38.220Z,19.20
2018-10-17T22:51:10.617Z,19.67
2018-10-17T22:53:42.198Z,18.63
2018-10-17T22:56:14.494Z,18.00
2018-10-17T22:58:45.857Z,18.80
2018-10-17T23:01:18.437Z,19.90
2018-10-17T23:03:50.257Z,22.70
2018-10-17T23:06:21.917Z,19.77
2018-10-17T23:08:53.978Z,18.27
2018-10-17T23:11:26.060Z,17.47
2018-10-17T23:13:58.171Z,17.53
2018-10-17T23:16:30.078Z,21.10
2018-10-17T23:19:03.697Z,19.50
2018-10-17T23:21:36.398Z,18.10
2018-10-17T23:24:07.757Z,17.63
2018-10-17T23:26:39.738Z,18.60
2018-10-17T23:29:11.640Z,18.53
2018-10-17T23:31:43.137Z,20.03
2018-10-17T23:34:14.777Z,18.37
2018-10-17T23:36:46.777Z,17.40
2018-10-17T23:39:18.820Z,18.77
2018-10-17T23:41:51.526Z,19.27
2018-10-17T23:44:24.601Z,17.83
2018-10-17T23:46:56.397Z,19.03
2018-10-17T23:49:28.158Z,23.40
2018-10-17T23:51:59.717Z,20.77
2018-10-17T23:54:31.717Z,20.17
2018-10-17T23:57:04.157Z,21.83
2018-10-17T23:59:35.837Z,18.43
